ADDS METAR Data INFO
IDs: Format: Raw Decoded Include TAF

Data at: 1714 UTC 23 Oct 2017

KBDU 231654Z AUTO 11007KT 10SM OVC022 06/00 A3046 RMK AO2
KBDU 231630Z AUTO 11008KT 10SM OVC022 06/00 A3045 RMK AO2
KBDU 231612Z AUTO 13009KT 10SM OVC022 06/00 A3045 RMK AO2
KBDU 231554Z AUTO 12009KT 10SM OVC022 05/00 A3045 RMK AO2
KBDU 231530Z AUTO 12007KT 10SM OVC020 05/00 A3047 RMK AO2
KBDU 231512Z AUTO 10005KT 10SM OVC020 05/00 A3047 RMK AO2
KBDU 231454Z AUTO 11007KT 10SM OVC020 05/00 A3046 RMK AO2
KBDU 231430Z AUTO 14004KT 10SM OVC020 06/00 A3045 RMK AO2
KBDU 231412Z AUTO 13005KT 10SM OVC020 06/01 A3043 RMK AO2
KBDU 231354Z AUTO 11004KT 10SM SCT020 BKN100 06/01 A3041 RMK AO2
KBDU 231330Z AUTO 10009G20KT 072V132 10SM BKN100 06/00 A3035 RMK AO2
KBDU 231312Z AUTO 08019G28KT 10SM BKN100 10/00 A3030 RMK AO2
KBDU 231254Z AUTO 34015G21KT 10SM SCT100 16/M02 A3027 RMK AO2
KBDU 231230Z AUTO 33015G24KT 10SM SCT090 16/M02 A3025 RMK AO2
KBDU 231212Z AUTO 34015G20KT 10SM CLR 16/M02 A3024 RMK AO2
KBDU 231154Z AUTO 32015G28KT 10SM CLR 16/M02 A3023 RMK AO2
KBDU 231130Z AUTO 33011G17KT 10SM CLR 16/M01 A3021 RMK AO2
KBDU 231112Z AUTO 36008KT 10SM CLR 16/M02 A3019 RMK AO2
KBDU 231054Z AUTO 33005KT 10SM CLR 16/M02 A3018 RMK AO2
KBDU 231030Z AUTO 34008G14KT 10SM CLR 16/M02 A3019 RMK AO2
KBDU 231012Z AUTO 32011G20KT 10SM CLR 17/M02 A3018 RMK AO2
KBDU 230954Z AUTO 34008KT 302V012 10SM CLR 16/M02 A3018 RMK AO2
KBDU 230930Z AUTO 00000KT 10SM CLR 17/M03 A3018 RMK AO2
KBDU 230912Z AUTO 18004KT 10SM CLR 15/M03 A3015 RMK AO2
KBDU 230854Z AUTO 00000KT 10SM CLR 16/M03 A3016 RMK AO2
KBDU 230836Z AUTO 07007G16KT 10SM CLR 15/M03 A3016 RMK AO2
KBDU 230812Z AUTO 13007KT 10SM CLR 15/M03 A3015 RMK AO2
KBDU 230754Z AUTO 19006KT 172V232 10SM CLR 15/M03 A3015 RMK AO2
KBDU 230736Z AUTO 34013G18KT 10SM CLR 16/M03 A3014 RMK AO2
KBDU 230712Z AUTO 34004KT 10SM CLR 14/M03 A3015 RMK AO2
KBDU 230654Z AUTO 08003KT 10SM CLR 14/M03 A3015 RMK AO2
KBDU 230630Z AUTO 08004KT 10SM CLR 15/M03 A3015 RMK AO2
KBDU 230612Z AUTO 00000KT 10SM CLR 17/M03 A3015 RMK AO2
KBDU 230553Z AUTO 23010KT 10SM CLR 17/M03 A3014 RMK AO2
KBDU 230530Z AUTO 21007KT 10SM CLR 15/M03 A3014 RMK AO2
KBDU 230512Z AUTO 00000KT 10SM CLR 13/M03 A3013 RMK AO2
KBDU 230454Z AUTO 00000KT 10SM CLR 15/M04 A3013 RMK AO2
KBDU 230430Z AUTO 00000KT 10SM CLR 15/M04 A3014 RMK AO2
KBDU 230412Z AUTO 03006KT 10SM SCT100 16/M04 A3014 RMK AO2
KBDU 230354Z AUTO 10003KT 10SM CLR 16/M03 A3012 RMK AO2
KBDU 230330Z AUTO 04008KT 10SM CLR 16/M04 A3012 RMK AO2
KBDU 230312Z AUTO 00000KT 10SM CLR 15/M02 A3012 RMK AO2
KBDU 230254Z AUTO 36003KT 10SM CLR 16/M03 A3011 RMK AO2
KBDU 230230Z AUTO 00000KT 10SM CLR 16/M03 A3012 RMK AO2
KBDU 230212Z AUTO 00000KT 10SM CLR 17/M03 A3011 RMK AO2
KBDU 230154Z AUTO 05003KT 10SM CLR 17/M03 A3011 RMK AO2
KBDU 230130Z AUTO 19003KT 10SM CLR 16/M03 A3011 RMK AO2
KBDU 230112Z AUTO 00000KT 10SM CLR 15/M03 A3011 RMK AO2
KBDU 230054Z AUTO 07003KT 10SM CLR 17/M04 A3010 RMK AO2
KBDU 230030Z AUTO 00000KT 10SM CLR 17/M04 A3010 RMK AO2
KBDU 230012Z AUTO 29011G15KT 10SM CLR 18/M04 A3009 RMK AO2
KBDU 222354Z AUTO 30010G20KT 10SM CLR 18/M05 A3009 RMK AO2
KBDU 222330Z AUTO 29010KT 10SM CLR 18/M05 A3008 RMK AO2
KBDU 222312Z AUTO 29009KT 10SM CLR 19/M05 A3008 RMK AO2
KBDU 222254Z AUTO 27005G15KT 10SM CLR 21/M05 A3008 RMK AO2
KBDU 222230Z AUTO 26013KT 202V302 10SM CLR 21/M06 A3008 RMK AO2
KBDU 222212Z AUTO 22006KT 10SM CLR 18/M06 A3009 RMK AO2
KBDU 222154Z AUTO 00000KT 10SM CLR 19/M06 A3010 RMK AO2
KBDU 222130Z AUTO 26006KT 10SM CLR 18/M07 A3009 RMK AO2
KBDU 222112Z AUTO 30009G17KT 10SM CLR 18/M07 A3009 RMK AO2
KBDU 222053Z AUTO 29020G29KT 10SM CLR 18/M07 A3009 RMK AO2
KBDU 222035Z AUTO 29006KT 10SM CLR 17/M05 A3010 RMK AO2
KBDU 222011Z AUTO 29009KT 10SM CLR 17/M05 A3010 RMK AO2
KBDU 221954Z AUTO 29014G22KT 10SM CLR 17/M05 A3010 RMK AO2
KBDU 221930Z AUTO 29013G28KT 10SM CLR 18/M05 A3012 RMK AO2
KBDU 221912Z AUTO 31009G19KT 292V352 10SM CLR 18/M02 A3012 RMK AO2
KBDU 221854Z AUTO 31014G26KT 10SM CLR 20/M04 A3013 RMK AO2
KBDU 221830Z AUTO 30014G22KT 10SM CLR 18/M03 A3013 RMK AO2
KBDU 221812Z AUTO 02008KT 332V072 10SM CLR 15/M02 A3013 RMK AO2
KBDU 221754Z AUTO 03006KT 10SM CLR 13/M01 A3015 RMK AO2
KBDU 221730Z AUTO 36004KT 10SM CLR 12/M01 A3016 RMK AO2
KBDU 221712Z AUTO 04006KT 10SM CLR 12/M01 A3016 RMK AO2
KBDU 221653Z AUTO 04005KT 10SM CLR 12/M02 A3015 RMK AO2
KBDU 221635Z AUTO 07004KT 10SM CLR 12/M03 A3016 RMK AO2
KBDU 221611Z AUTO 06004KT 10SM CLR 11/M04 A3016 RMK AO2
KBDU 221552Z AUTO 00000KT 10SM CLR 09/M04 A3017 RMK AO2
KBDU 221534Z AUTO 04006KT 10SM CLR 10/M05 A3017 RMK AO2
KBDU 221512Z AUTO 14003KT 10SM CLR 06/M05 A3016 RMK AO2
KBDU 221453Z AUTO 15005KT 10SM CLR 05/M05 A3015 RMK AO2
KBDU 221436Z AUTO 11005KT 10SM CLR 03/M04 A3015 RMK AO2
KBDU 221412Z AUTO 15003KT 10SM CLR 02/M05 A3014 RMK AO2
KBDU 221353Z AUTO 00000KT 10SM CLR 02/M06 A3016 RMK AO2
KBDU 221336Z AUTO 00000KT 10SM CLR 01/M06 A3015 RMK AO2
KBDU 221312Z AUTO 13004KT 10SM CLR 01/M06 A3014 RMK AO2
KBDU 221254Z AUTO 01003KT 10SM CLR 01/M05 A3014 RMK AO2
KBDU 221230Z AUTO 14005KT 10SM CLR 02/M05 A3014 RMK AO2
KBDU 221212Z AUTO 12004KT 10SM CLR 03/M06 A3013 RMK AO2
KBDU 221154Z AUTO 00000KT 10SM CLR 03/M07 A3013 RMK AO2
KBDU 221130Z AUTO 00000KT 10SM CLR 03/M08 A3013 RMK AO2
KBDU 221112Z AUTO 36007KT 10SM CLR 05/M08 A3012 RMK AO2
KBDU 221054Z AUTO 31004G10KT 10SM CLR 11/M08 A3011 RMK AO2
KBDU 221030Z AUTO 29014G21KT 10SM CLR 11/M09 A3011 RMK AO2
KBDU 221012Z AUTO 28022G29KT 10SM CLR 11/M09 A3011 RMK AO2
KBDU 220952Z AUTO 28021G28KT 10SM CLR 10/M09 A3010 RMK AO2
KBDU 220934Z AUTO 29010G16KT 262V322 10SM CLR 10/M10 A3010 RMK AO2
KBDU 220912Z AUTO 28006KT 10SM CLR 10/M10 A3011 RMK AO2
KBDU 220854Z AUTO 00000KT 10SM CLR 09/M10 A3011 RMK AO2
KBDU 220830Z AUTO 25005KT 10SM CLR 09/M10 A3010 RMK AO2
KBDU 220812Z AUTO 25006G18KT 10SM CLR 10/M10 A3010 RMK AO2
KBDU 220754Z AUTO 24009KT 10SM CLR 08/M10 A3009 RMK AO2
KBDU 220730Z AUTO 26012G18KT 10SM CLR 09/M10 A3008 RMK AO2
KBDU 220712Z AUTO 25009KT 10SM CLR 07/M10 A3010 RMK AO2
KBDU 220654Z AUTO 22004KT 10SM CLR 06/M09 A3011 RMK AO2
KBDU 220630Z AUTO 25005KT 10SM CLR 05/M08 A3011 RMK AO2
KBDU 220612Z AUTO 00000KT 10SM CLR 05/M10 A3011 RMK AO2
KBDU 220553Z AUTO 20004KT 10SM CLR 04/M10 A3012 RMK AO2
KBDU 220530Z AUTO 19008KT 122V232 10SM CLR 03/M09 A3011 RMK AO2